Terminal Aerodrome Forecast
Issued by NWS

Home | Current Version | Previous Version | Text Only | Print | Product List | Glossary On
Versions: 1 2 3 4 5 6 7 8 9 10 11 12 13 14 15 16 17 18 19 20 21 22 23 24 25
000
FTUS46 KEKA 241120
TAFCEC
TAF
KCEC 241120Z 2412/2512 16022G30KT P6SM -RA OVC050 WS020/17050KT
      TEMPO 2412/2413 5SM -RA FEW035 OVC040
     FM241400 17016G23KT 4SM -RA BR BKN015 OVC030
     FM241800 18013KT 5SM -RA FEW010 SCT025 OVC035
     FM242100 18010KT P6SM -RA FEW010 SCT025 OVC035
     FM250300 17005KT P6SM SCT025 OVC035
     FM250600 17005KT P6SM OVC050=

USA.gov is the U.S. government's official web portal to all federal, state and local government web resources and services.